createdAt,value
2022-10-07T00:00:18.247Z,1.40
2022-10-07T00:02:19.958Z,1.30
2022-10-07T00:04:22.033Z,1.58
2022-10-07T00:06:23.674Z,1.30
2022-10-07T00:08:25.245Z,1.33
2022-10-07T00:10:27.542Z,1.38
2022-10-07T00:12:29.344Z,1.58
2022-10-07T00:14:30.934Z,1.50
2022-10-07T00:16:34.861Z,1.50
2022-10-07T00:18:37.655Z,1.50
2022-10-07T00:20:40.135Z,1.40
2022-10-07T00:22:41.748Z,1.40
2022-10-07T00:24:43.899Z,1.20
2022-10-07T00:26:45.552Z,1.40
2022-10-07T00:28:47.242Z,1.15
2022-10-07T00:31:00.434Z,1.42
2022-10-07T00:33:02.090Z,1.23
2022-10-07T00:35:03.869Z,1.20
2022-10-07T00:37:05.512Z,1.38
2022-10-07T00:39:11.003Z,1.00
2022-10-07T00:41:22.212Z,1.13
2022-10-07T00:43:26.773Z,1.40
2022-10-07T00:45:29.747Z,1.50
2022-10-07T00:47:36.807Z,1.67
2022-10-07T00:49:56.422Z,1.55
2022-10-07T00:51:58.551Z,1.60
2022-10-07T00:54:03.275Z,1.40
2022-10-07T00:56:07.530Z,1.20
2022-10-07T00:58:09.585Z,1.33
2022-10-07T01:00:11.766Z,1.20
2022-10-07T01:02:13.493Z,1.25
2022-10-07T01:04:15.314Z,1.50
2022-10-07T01:06:17.260Z,1.50
2022-10-07T01:08:20.360Z,1.33
2022-10-07T01:10:24.277Z,1.10
2022-10-07T01:12:34.880Z,1.38
2022-10-07T01:14:57.153Z,1.20
2022-10-07T01:17:23.120Z,1.08
2022-10-07T01:19:56.452Z,1.10
2022-10-07T01:22:13.936Z,1.17
2022-10-07T01:24:29.116Z,1.10
2022-10-07T01:26:53.433Z,1.10
2022-10-07T01:29:13.965Z,1.48
2022-10-07T01:31:19.592Z,0.85
2022-10-07T01:33:27.767Z,1.50
2022-10-07T01:35:34.666Z,1.23
2022-10-07T01:37:43.306Z,1.20
2022-10-07T01:39:56.892Z,1.35
2022-10-07T01:41:59.827Z,1.08
2022-10-07T01:44:01.947Z,1.38
2022-10-07T01:46:06.833Z,1.58
2022-10-07T01:48:08.846Z,1.10
2022-10-07T01:50:14.410Z,1.30
2022-10-07T01:52:19.032Z,1.10
2022-10-07T01:54:42.128Z,1.05
2022-10-07T01:57:02.517Z,1.20
2022-10-07T01:59:16.327Z,1.05
2022-10-07T02:01:24.580Z,0.95
2022-10-07T02:03:37.462Z,1.30
2022-10-07T02:06:03.374Z,1.00
2022-10-07T02:08:23.881Z,1.10
2022-10-07T02:10:35.517Z,1.30
2022-10-07T02:12:52.371Z,1.27
2022-10-07T02:15:11.751Z,1.15
2022-10-07T02:17:19.347Z,1.17
2022-10-07T02:19:29.063Z,1.23
2022-10-07T02:21:35.829Z,1.10
2022-10-07T02:23:39.955Z,1.13
2022-10-07T02:25:47.272Z,1.20
2022-10-07T02:27:53.863Z,1.40
2022-10-07T02:29:59.259Z,1.08
2022-10-07T02:32:05.039Z,1.02
2022-10-07T02:34:09.703Z,1.20
2022-10-07T02:36:16.736Z,1.00
2022-10-07T02:38:19.008Z,1.05
2022-10-07T02:40:22.651Z,1.10
2022-10-07T02:42:39.222Z,1.20
2022-10-07T02:44:49.354Z,0.93
2022-10-07T02:47:43.546Z,1.20
2022-10-07T02:49:48.627Z,1.02
2022-10-07T02:52:06.753Z,1.20
2022-10-07T02:54:08.386Z,1.20
2022-10-07T02:56:10.303Z,1.08
2022-10-07T02:58:12.853Z,1.00
2022-10-07T03:00:15.775Z,1.10
2022-10-07T03:02:23.482Z,0.98
2022-10-07T03:04:25.200Z,1.27
2022-10-07T03:06:29.515Z,1.23
2022-10-07T03:08:32.227Z,1.27
2022-10-07T03:10:34.351Z,1.45
2022-10-07T03:12:35.984Z,1.25
2022-10-07T03:14:37.581Z,1.23
2022-10-07T03:16:39.203Z,1.10
2022-10-07T03:18:41.252Z,1.10
2022-10-07T03:20:42.845Z,1.00
2022-10-07T03:22:44.927Z,1.27
2022-10-07T03:24:46.651Z,1.35
2022-10-07T03:26:48.262Z,1.35
2022-10-07T03:28:49.924Z,1.10
2022-10-07T03:30:51.823Z,1.10
2022-10-07T03:32:54.279Z,1.00
2022-10-07T03:34:55.964Z,1.17
2022-10-07T03:36:57.958Z,1.15
2022-10-07T03:38:59.679Z,1.05
2022-10-07T03:41:03.846Z,1.00
2022-10-07T03:43:07.151Z,0.93
2022-10-07T03:45:09.153Z,1.10
2022-10-07T03:47:11.704Z,1.10
2022-10-07T03:49:13.549Z,1.48
2022-10-07T03:51:15.246Z,1.15
2022-10-07T03:53:16.886Z,1.30
2022-10-07T03:55:19.228Z,0.90
2022-10-07T03:57:39.408Z,0.90
2022-10-07T03:59:40.998Z,0.90
2022-10-07T04:01:42.662Z,1.00
2022-10-07T04:03:44.887Z,1.15
2022-10-07T04:05:59.611Z,1.00
2022-10-07T04:08:01.325Z,1.15
2022-10-07T04:10:03.051Z,1.00
2022-10-07T04:12:04.848Z,1.00
2022-10-07T04:14:06.584Z,1.10
2022-10-07T04:16:09.930Z,1.10
2022-10-07T04:18:11.615Z,1.10
2022-10-07T04:20:15.144Z,1.10
2022-10-07T04:22:16.773Z,1.20
2022-10-07T04:24:18.380Z,1.25
2022-10-07T04:26:20.043Z,0.93
2022-10-07T04:28:25.960Z,1.10
2022-10-07T04:30:29.097Z,1.13
2022-10-07T04:32:31.476Z,1.05
2022-10-07T04:34:33.153Z,1.15
2022-10-07T04:36:34.743Z,1.17
2022-10-07T04:38:36.444Z,1.10
2022-10-07T04:40:42.952Z,1.08
2022-10-07T04:43:03.441Z,1.02
2022-10-07T04:45:06.010Z,1.45
2022-10-07T04:47:07.672Z,1.10
2022-10-07T04:49:10.488Z,1.13
2022-10-07T04:51:12.419Z,1.08
2022-10-07T04:53:15.709Z,1.10
2022-10-07T04:55:17.388Z,1.20
2022-10-07T04:57:19.049Z,0.93
2022-10-07T04:59:23.626Z,1.25
2022-10-07T05:01:26.163Z,1.10
2022-10-07T05:03:29.111Z,1.50
2022-10-07T05:05:30.797Z,1.38
2022-10-07T05:07:32.458Z,1.30
2022-10-07T05:09:34.535Z,1.20
2022-10-07T05:11:37.532Z,1.55
2022-10-07T05:13:39.633Z,1.42
2022-10-07T05:15:58.067Z,1.30
2022-10-07T05:17:59.751Z,1.20
2022-10-07T05:20:02.004Z,1.10
2022-10-07T05:22:04.118Z,1.52
2022-10-07T05:24:05.749Z,1.15
2022-10-07T05:26:10.452Z,1.48
2022-10-07T05:28:14.262Z,1.60
2022-10-07T05:30:15.942Z,1.30
2022-10-07T05:32:17.539Z,1.20
2022-10-07T05:34:20.208Z,1.33
2022-10-07T05:36:21.950Z,1.50
2022-10-07T05:38:23.798Z,1.40
2022-10-07T05:40:25.563Z,1.80
2022-10-07T05:42:27.420Z,1.33
2022-10-07T05:44:32.035Z,1.33
2022-10-07T05:46:33.650Z,1.08
2022-10-07T05:48:39.350Z,1.50
2022-10-07T05:50:42.227Z,1.40
2022-10-07T05:52:45.306Z,1.67
2022-10-07T05:54:47.005Z,1.30
2022-10-07T05:56:49.339Z,1.20
2022-10-07T05:58:52.550Z,1.42
2022-10-07T06:00:58.047Z,1.40
2022-10-07T06:03:02.480Z,1.60
2022-10-07T06:05:04.535Z,1.40
2022-10-07T06:07:06.120Z,1.40
2022-10-07T06:09:26.579Z,1.45
2022-10-07T06:11:46.948Z,1.60
2022-10-07T06:13:50.555Z,2.05
2022-10-07T06:15:52.132Z,1.65
2022-10-07T06:17:53.728Z,2.13
2022-10-07T06:19:55.331Z,1.95
2022-10-07T06:21:56.928Z,2.05
2022-10-07T06:23:58.581Z,2.22
2022-10-07T06:26:15.344Z,2.20
2022-10-07T06:28:17.359Z,1.90
2022-10-07T06:30:19.119Z,2.25
2022-10-07T06:32:20.905Z,1.67
2022-10-07T06:34:22.539Z,2.20
2022-10-07T06:36:24.213Z,1.70
2022-10-07T06:38:25.864Z,1.90
2022-10-07T06:40:27.607Z,2.30
2022-10-07T06:42:29.225Z,1.90
2022-10-07T06:44:31.165Z,2.13
2022-10-07T06:46:32.818Z,1.90
2022-10-07T06:48:35.706Z,1.90
2022-10-07T06:50:37.320Z,2.08
2022-10-07T06:52:43.282Z,1.55
2022-10-07T06:54:45.228Z,2.22
2022-10-07T06:56:46.866Z,2.30
2022-10-07T06:58:49.773Z,1.98
2022-10-07T07:00:52.241Z,1.77
2022-10-07T07:02:53.846Z,1.95
2022-10-07T07:04:57.751Z,1.70
2022-10-07T07:06:59.593Z,1.80
2022-10-07T07:09:05.013Z,1.95
2022-10-07T07:11:30.072Z,2.00
2022-10-07T07:13:34.989Z,1.65
2022-10-07T07:15:37.111Z,1.63
2022-10-07T07:17:38.761Z,1.83
2022-10-07T07:19:40.369Z,1.67
2022-10-07T07:21:42.119Z,1.60
2022-10-07T07:23:43.778Z,1.95
2022-10-07T07:25:46.110Z,1.70
2022-10-07T07:27:52.434Z,1.83
2022-10-07T07:29:58.577Z,1.77
2022-10-07T07:32:00.799Z,1.60
2022-10-07T07:34:07.151Z,1.73
2022-10-07T07:36:16.339Z,1.77
2022-10-07T07:38:19.365Z,1.80
2022-10-07T07:40:23.739Z,1.95
2022-10-07T07:42:28.142Z,1.98
2022-10-07T07:44:34.025Z,1.73
2022-10-07T07:46:43.052Z,2.05
2022-10-07T07:48:44.919Z,1.67
2022-10-07T07:50:46.546Z,1.65
2022-10-07T07:52:48.157Z,1.88
2022-10-07T07:54:51.603Z,1.60
2022-10-07T07:56:57.600Z,1.50
2022-10-07T07:59:01.166Z,1.65
2022-10-07T08:01:13.444Z,2.00
2022-10-07T08:03:15.150Z,1.50
2022-10-07T08:05:21.400Z,1.85
2022-10-07T08:07:26.725Z,1.75
2022-10-07T08:09:28.332Z,1.98
2022-10-07T08:11:30.124Z,1.73
2022-10-07T08:13:33.024Z,1.50
2022-10-07T08:15:34.697Z,1.83
2022-10-07T08:17:36.342Z,2.10
2022-10-07T08:19:38.508Z,1.38
2022-10-07T08:21:40.407Z,1.77
2022-10-07T08:23:42.427Z,1.50
2022-10-07T08:25:44.016Z,1.95
2022-10-07T08:27:45.848Z,1.60
2022-10-07T08:29:47.670Z,1.80
2022-10-07T08:31:49.750Z,1.40
2022-10-07T08:33:51.361Z,1.40
2022-10-07T08:35:59.323Z,1.65
2022-10-07T08:38:00.935Z,1.67
2022-10-07T08:40:02.946Z,1.35
2022-10-07T08:42:13.334Z,1.45
2022-10-07T08:44:20.673Z,1.55
2022-10-07T08:46:27.769Z,1.63
2022-10-07T08:48:34.090Z,2.08
2022-10-07T08:50:51.694Z,2.22
2022-10-07T08:52:54.795Z,2.55
2022-10-07T08:54:56.496Z,2.00
2022-10-07T08:57:06.895Z,2.25
2022-10-07T08:59:29.473Z,1.92
2022-10-07T09:01:51.907Z,2.35
2022-10-07T09:04:18.371Z,2.65
2022-10-07T09:06:28.296Z,2.50
2022-10-07T09:08:34.640Z,2.90
2022-10-07T09:10:38.337Z,2.58
2022-10-07T09:12:54.936Z,2.65
2022-10-07T09:14:58.946Z,2.75
2022-10-07T09:17:08.424Z,2.20
2022-10-07T09:19:26.222Z,2.53
2022-10-07T09:21:49.001Z,2.70
2022-10-07T09:23:57.293Z,2.42
2022-10-07T09:25:59.135Z,2.63
2022-10-07T09:28:00.835Z,2.85
2022-10-07T09:30:03.728Z,3.25
2022-10-07T09:32:05.401Z,2.65
2022-10-07T09:34:19.515Z,2.75
2022-10-07T09:36:21.275Z,2.90
2022-10-07T09:38:32.102Z,3.03
2022-10-07T09:41:07.788Z,2.22
2022-10-07T09:43:13.861Z,3.47
2022-10-07T09:45:32.039Z,2.30
2022-10-07T09:47:40.304Z,3.10
2022-10-07T09:49:45.043Z,2.22
2022-10-07T09:52:15.634Z,2.17
2022-10-07T09:54:20.144Z,2.80
2022-10-07T09:56:54.382Z,2.63
2022-10-07T09:59:25.757Z,2.15
2022-10-07T10:01:27.361Z,2.15
2022-10-07T10:03:34.729Z,2.88
2022-10-07T10:05:51.227Z,2.30
2022-10-07T10:07:56.544Z,2.50
2022-10-07T10:10:03.380Z,1.90
2022-10-07T10:12:15.372Z,2.45
2022-10-07T10:14:59.533Z,2.28
2022-10-07T10:17:01.275Z,2.42
2022-10-07T10:19:24.293Z,2.50
2022-10-07T10:21:40.706Z,1.75
2022-10-07T10:23:47.491Z,1.95
2022-10-07T10:26:22.772Z,2.40
2022-10-07T10:28:50.161Z,2.05
2022-10-07T10:30:59.774Z,2.60
2022-10-07T10:33:10.070Z,2.35
2022-10-07T10:35:35.061Z,1.95
2022-10-07T10:37:52.001Z,2.10
2022-10-07T10:40:15.328Z,2.03
2022-10-07T10:42:25.272Z,2.30
2022-10-07T10:44:32.915Z,2.58
2022-10-07T10:46:52.246Z,2.42
2022-10-07T10:49:02.352Z,2.50
2022-10-07T10:51:46.260Z,2.30
2022-10-07T10:54:04.634Z,2.20
2022-10-07T10:56:26.193Z,2.08
2022-10-07T10:58:42.755Z,2.03
2022-10-07T11:00:50.349Z,2.30
2022-10-07T11:03:03.933Z,2.17
2022-10-07T11:05:26.143Z,1.75
2022-10-07T11:07:35.475Z,1.70
2022-10-07T11:09:43.793Z,1.95
2022-10-07T11:11:45.669Z,2.03
2022-10-07T11:14:09.925Z,2.08
2022-10-07T11:16:36.427Z,1.98
2022-10-07T11:18:45.618Z,2.00
2022-10-07T11:20:48.632Z,1.88
2022-10-07T11:22:58.911Z,1.92
2022-10-07T11:25:15.823Z,1.90
2022-10-07T11:27:35.838Z,1.85
2022-10-07T11:30:06.503Z,2.42
2022-10-07T11:32:16.169Z,2.35
2022-10-07T11:34:37.057Z,1.85
2022-10-07T11:36:48.265Z,2.53
2022-10-07T11:38:52.516Z,1.80
2022-10-07T11:41:03.741Z,1.83
2022-10-07T11:43:12.476Z,2.28
2022-10-07T11:45:19.465Z,2.08
2022-10-07T11:47:26.249Z,1.90
2022-10-07T11:49:35.958Z,2.30
2022-10-07T11:51:50.093Z,1.88
2022-10-07T11:53:55.620Z,2.00
2022-10-07T11:56:05.687Z,2.92
2022-10-07T11:58:26.062Z,2.20
2022-10-07T12:00:36.705Z,1.88
2022-10-07T12:02:42.071Z,1.75
2022-10-07T12:04:43.812Z,2.20
2022-10-07T12:07:23.047Z,2.20
2022-10-07T12:10:07.403Z,2.03
2022-10-07T12:12:13.787Z,1.85
2022-10-07T12:14:40.968Z,2.38
2022-10-07T12:16:54.212Z,2.08
2022-10-07T12:19:07.641Z,2.13
2022-10-07T12:21:09.346Z,2.40
2022-10-07T12:23:20.370Z,1.85
2022-10-07T12:27:34.752Z,2.40
2022-10-07T12:29:58.516Z,1.88
2022-10-07T12:32:00.874Z,2.30
2022-10-07T12:34:05.540Z,2.58
2022-10-07T12:36:20.053Z,1.90
2022-10-07T12:38:31.106Z,2.00
2022-10-07T12:40:35.747Z,1.90
2022-10-07T12:42:53.985Z,2.40
2022-10-07T12:44:57.074Z,2.17
2022-10-07T12:47:12.870Z,1.88
2022-10-07T12:49:45.502Z,1.95
2022-10-07T12:51:47.246Z,1.90
2022-10-07T12:53:50.623Z,2.13
2022-10-07T12:55:55.277Z,2.10
2022-10-07T12:58:17.113Z,2.20
2022-10-07T13:00:24.568Z,2.10
2022-10-07T13:02:41.793Z,1.92
2022-10-07T13:05:15.918Z,1.65
2022-10-07T13:07:49.450Z,1.90
2022-10-07T13:10:06.283Z,1.80
2022-10-07T13:12:41.452Z,2.15
2022-10-07T13:14:43.104Z,1.98
2022-10-07T13:16:56.421Z,2.20
2022-10-07T13:19:00.331Z,1.83
2022-10-07T13:21:30.719Z,2.10
2022-10-07T13:23:34.078Z,2.08
2022-10-07T13:25:42.429Z,2.08
2022-10-07T13:27:53.745Z,2.00
2022-10-07T13:29:56.909Z,1.80
2022-10-07T13:32:06.967Z,1.88
2022-10-07T13:34:16.333Z,2.40
2022-10-07T13:36:24.092Z,3.22
2022-10-07T13:38:28.180Z,3.08
2022-10-07T13:40:35.703Z,3.17
2022-10-07T13:42:37.432Z,3.85
2022-10-07T13:44:43.618Z,3.88
2022-10-07T13:47:03.360Z,3.30
2022-10-07T13:49:05.344Z,3.22
2022-10-07T13:51:07.311Z,3.38
2022-10-07T13:53:37.213Z,3.20
2022-10-07T13:55:38.879Z,3.08
2022-10-07T13:57:43.955Z,3.13
2022-10-07T13:59:46.786Z,3.38
2022-10-07T14:01:53.823Z,3.00
2022-10-07T14:04:23.293Z,3.45
2022-10-07T14:06:53.677Z,3.55
2022-10-07T14:08:55.280Z,3.50
2022-10-07T14:11:07.186Z,3.38
2022-10-07T14:13:14.797Z,3.15
2022-10-07T14:15:20.480Z,3.10
2022-10-07T14:17:44.290Z,3.08
2022-10-07T14:19:53.132Z,3.47
2022-10-07T14:21:54.924Z,3.60
2022-10-07T14:23:56.709Z,3.30
2022-10-07T14:26:06.336Z,3.00
2022-10-07T14:28:23.953Z,3.75
2022-10-07T14:30:28.882Z,3.30
2022-10-07T14:32:49.517Z,2.72
2022-10-07T14:35:09.895Z,3.17
2022-10-07T14:37:26.236Z,3.67
2022-10-07T14:39:44.804Z,3.17
2022-10-07T14:41:47.027Z,3.42
2022-10-07T14:43:51.775Z,3.20
2022-10-07T14:45:53.452Z,2.95
2022-10-07T14:47:55.095Z,3.08
2022-10-07T14:49:58.007Z,3.33
2022-10-07T14:52:00.858Z,3.30
2022-10-07T14:54:06.513Z,2.92
2022-10-07T14:56:13.964Z,3.42
2022-10-07T14:58:15.593Z,3.33
2022-10-07T15:00:20.473Z,2.95
2022-10-07T15:02:22.416Z,3.53
2022-10-07T15:04:24.259Z,2.78
2022-10-07T15:06:26.025Z,3.05
2022-10-07T15:08:27.651Z,3.13
2022-10-07T15:10:29.356Z,3.33
2022-10-07T15:12:31.128Z,2.75
2022-10-07T15:14:33.243Z,2.95
2022-10-07T15:16:34.920Z,2.72
2022-10-07T15:18:41.076Z,3.33
2022-10-07T15:20:45.034Z,3.47
2022-10-07T15:22:47.019Z,2.75
2022-10-07T15:24:48.836Z,3.08
2022-10-07T15:26:50.610Z,2.53
2022-10-07T15:28:54.887Z,2.95
2022-10-07T15:31:08.032Z,2.70
2022-10-07T15:33:10.921Z,2.47
2022-10-07T15:35:12.507Z,3.20
2022-10-07T15:37:14.361Z,2.40
2022-10-07T15:39:15.958Z,2.30
2022-10-07T15:41:34.387Z,2.35
2022-10-07T15:43:36.025Z,3.28
2022-10-07T15:45:44.847Z,2.95
2022-10-07T15:47:46.445Z,2.55
2022-10-07T15:49:49.020Z,2.83
2022-10-07T15:51:50.892Z,2.20
2022-10-07T15:53:53.736Z,2.78
2022-10-07T15:55:57.248Z,2.40
2022-10-07T15:57:58.971Z,2.17
2022-10-07T16:00:01.511Z,2.70
2022-10-07T16:02:04.232Z,2.50
2022-10-07T16:04:06.048Z,2.50
2022-10-07T16:06:13.879Z,2.40
2022-10-07T16:08:15.472Z,2.08
2022-10-07T16:10:17.076Z,2.30
2022-10-07T16:12:18.732Z,2.17
2022-10-07T16:14:20.356Z,2.40
2022-10-07T16:16:24.362Z,2.30
2022-10-07T16:18:25.976Z,2.00
2022-10-07T16:20:27.756Z,2.15
2022-10-07T16:22:29.390Z,2.40
2022-10-07T16:24:35.209Z,1.90
2022-10-07T16:26:37.461Z,2.60
2022-10-07T16:28:59.088Z,2.45
2022-10-07T16:31:00.753Z,2.42
2022-10-07T16:33:02.380Z,2.78
2022-10-07T16:35:04.244Z,2.50
2022-10-07T16:37:06.183Z,2.20
2022-10-07T16:39:08.893Z,2.42
2022-10-07T16:41:10.499Z,2.42
2022-10-07T16:43:12.099Z,2.88
2022-10-07T16:45:13.707Z,1.90
2022-10-07T16:47:15.307Z,2.03
2022-10-07T16:49:18.224Z,2.20
2022-10-07T16:51:22.684Z,2.20
2022-10-07T16:53:24.296Z,2.72
2022-10-07T16:55:25.896Z,2.80
2022-10-07T16:57:27.493Z,2.10
2022-10-07T16:59:29.159Z,2.58
2022-10-07T17:01:31.745Z,2.20
2022-10-07T17:03:34.460Z,1.88
2022-10-07T17:05:37.408Z,1.90
2022-10-07T17:07:39.081Z,1.90
2022-10-07T17:09:40.688Z,2.60
2022-10-07T17:11:42.360Z,2.47
2022-10-07T17:13:43.977Z,3.53
2022-10-07T17:15:51.789Z,2.60
2022-10-07T17:17:54.382Z,2.80
2022-10-07T17:19:55.963Z,3.03
2022-10-07T17:22:00.951Z,2.28
2022-10-07T17:24:03.374Z,2.38
2022-10-07T17:26:07.543Z,2.60
2022-10-07T17:28:09.219Z,2.50
2022-10-07T17:30:11.580Z,2.55
2022-10-07T17:32:14.410Z,2.97
2022-10-07T17:34:17.017Z,2.60
2022-10-07T17:36:21.095Z,2.97
2022-10-07T17:38:22.743Z,2.97
2022-10-07T17:40:24.570Z,2.35
2022-10-07T17:42:26.233Z,2.22
2022-10-07T17:44:27.855Z,2.38
2022-10-07T17:46:32.877Z,2.30
2022-10-07T17:48:37.044Z,2.33
2022-10-07T17:50:38.643Z,2.30
2022-10-07T17:52:40.514Z,2.33
2022-10-07T17:54:42.119Z,2.00
2022-10-07T17:56:47.588Z,2.30
2022-10-07T17:58:50.461Z,2.38
2022-10-07T18:00:52.116Z,2.30
2022-10-07T18:02:53.763Z,2.22
2022-10-07T18:04:55.402Z,2.70
2022-10-07T18:06:58.114Z,2.72
2022-10-07T18:09:02.898Z,3.33
2022-10-07T18:11:04.623Z,2.92
2022-10-07T18:13:24.776Z,3.08
2022-10-07T18:15:26.366Z,2.77
2022-10-07T18:17:27.953Z,2.75
2022-10-07T18:19:29.657Z,3.05
2022-10-07T18:21:32.003Z,2.75
2022-10-07T18:23:34.915Z,2.75
2022-10-07T18:25:38.768Z,2.88
2022-10-07T18:27:40.503Z,2.90
2022-10-07T18:29:42.166Z,3.15
2022-10-07T18:31:43.880Z,3.28
2022-10-07T18:33:46.202Z,3.15
2022-10-07T18:35:47.936Z,3.28
2022-10-07T18:37:51.567Z,3.28
2022-10-07T18:39:53.252Z,3.20
2022-10-07T18:41:55.523Z,3.45
2022-10-07T18:43:57.119Z,2.75
2022-10-07T18:46:00.481Z,3.20
2022-10-07T18:48:02.133Z,3.10
2022-10-07T18:50:04.413Z,3.22
2022-10-07T18:52:07.238Z,3.42
2022-10-07T18:54:10.033Z,3.22
2022-10-07T18:56:14.472Z,2.60
2022-10-07T18:58:16.075Z,3.17
2022-10-07T19:00:17.859Z,2.75
2022-10-07T19:02:19.551Z,2.95
2022-10-07T19:04:21.274Z,2.60
2022-10-07T19:06:24.296Z,2.65
2022-10-07T19:08:25.904Z,3.45
2022-10-07T19:10:27.507Z,2.88
2022-10-07T19:12:47.441Z,2.95
2022-10-07T19:14:49.110Z,3.03
2022-10-07T19:16:50.884Z,3.05
2022-10-07T19:18:54.407Z,3.13
2022-10-07T19:20:58.026Z,3.22
2022-10-07T19:22:59.631Z,3.00
2022-10-07T19:25:19.659Z,2.70
2022-10-07T19:27:21.282Z,2.65
2022-10-07T19:29:22.973Z,2.60
2022-10-07T19:31:30.140Z,3.25
2022-10-07T19:33:32.186Z,2.85
2022-10-07T19:35:34.389Z,2.45
2022-10-07T19:37:36.020Z,2.47
2022-10-07T19:39:37.654Z,2.80
2022-10-07T19:41:39.453Z,3.00
2022-10-07T19:43:42.707Z,2.38
2022-10-07T19:45:44.365Z,2.75
2022-10-07T19:47:46.226Z,2.88
2022-10-07T19:49:49.071Z,2.72
2022-10-07T19:51:50.684Z,2.83
2022-10-07T19:53:53.001Z,2.72
2022-10-07T19:55:54.597Z,2.70
2022-10-07T19:57:57.587Z,2.35
2022-10-07T19:59:59.176Z,2.80
2022-10-07T20:02:01.375Z,2.63
2022-10-07T20:04:16.343Z,2.85
2022-10-07T20:06:18.024Z,2.80
2022-10-07T20:08:19.691Z,2.78
2022-10-07T20:10:22.047Z,2.47
2022-10-07T20:12:23.693Z,2.65
2022-10-07T20:14:25.327Z,2.70
2022-10-07T20:16:27.814Z,2.50
2022-10-07T20:18:29.442Z,2.83
2022-10-07T20:20:31.042Z,2.72
2022-10-07T20:22:34.309Z,2.83
2022-10-07T20:24:36.137Z,2.50
2022-10-07T20:26:38.355Z,2.58
2022-10-07T20:28:40.427Z,2.55
2022-10-07T20:30:42.116Z,2.55
2022-10-07T20:32:44.054Z,2.85
2022-10-07T20:34:48.364Z,2.50
2022-10-07T20:36:50.476Z,2.67
2022-10-07T20:39:22.896Z,2.55
2022-10-07T20:41:44.229Z,3.22
2022-10-07T20:43:45.815Z,2.75
2022-10-07T20:45:56.181Z,2.40
2022-10-07T20:47:59.516Z,2.88
2022-10-07T20:50:02.720Z,3.13
2022-10-07T20:52:18.122Z,2.70
2022-10-07T20:54:21.349Z,3.08
2022-10-07T20:56:22.964Z,3.00
2022-10-07T20:58:24.712Z,2.97
2022-10-07T21:00:26.379Z,3.00
2022-10-07T21:02:29.040Z,2.80
2022-10-07T21:04:30.773Z,2.90
2022-10-07T21:06:32.433Z,2.85
2022-10-07T21:08:34.044Z,2.60
2022-10-07T21:10:35.664Z,2.53
2022-10-07T21:12:38.311Z,2.80
2022-10-07T21:14:40.434Z,2.97
2022-10-07T21:16:42.303Z,2.65
2022-10-07T21:18:44.039Z,2.90
2022-10-07T21:20:57.038Z,2.70
2022-10-07T21:22:58.858Z,2.78
2022-10-07T21:25:00.451Z,2.83
2022-10-07T21:27:04.259Z,2.80
2022-10-07T21:29:08.019Z,2.53
2022-10-07T21:31:14.987Z,2.50
2022-10-07T21:33:16.595Z,2.50
2022-10-07T21:35:18.216Z,2.55
2022-10-07T21:37:19.791Z,2.67
2022-10-07T21:39:21.419Z,2.88
2022-10-07T21:41:34.118Z,2.83
2022-10-07T21:43:35.725Z,2.70
2022-10-07T21:45:38.647Z,2.85
2022-10-07T21:47:40.271Z,2.67
2022-10-07T21:49:41.873Z,2.85
2022-10-07T21:51:43.852Z,2.90
2022-10-07T21:53:53.048Z,2.67
2022-10-07T21:55:54.706Z,2.70
2022-10-07T21:57:56.536Z,2.47
2022-10-07T21:59:58.118Z,2.63
2022-10-07T22:01:59.714Z,2.70
2022-10-07T22:04:02.680Z,2.50
2022-10-07T22:06:06.843Z,2.72
2022-10-07T22:08:34.065Z,2.88
2022-10-07T22:10:35.686Z,2.53
2022-10-07T22:12:37.280Z,2.50
2022-10-07T22:14:39.468Z,2.67
2022-10-07T22:16:42.051Z,2.80
2022-10-07T22:18:49.933Z,2.40
2022-10-07T22:20:51.538Z,2.88
2022-10-07T22:22:57.795Z,2.63
2022-10-07T22:25:01.436Z,2.30
2022-10-07T22:27:04.316Z,2.30
2022-10-07T22:29:08.519Z,2.60
2022-10-07T22:31:11.037Z,2.80
2022-10-07T22:33:15.259Z,2.40
2022-10-07T22:35:33.780Z,2.35
2022-10-07T22:37:35.428Z,2.63
2022-10-07T22:39:37.088Z,2.60
2022-10-07T22:41:40.291Z,2.35
2022-10-07T22:43:46.355Z,2.47
2022-10-07T22:45:58.498Z,2.65
2022-10-07T22:48:00.174Z,2.67
2022-10-07T22:50:05.458Z,2.92
2022-10-07T22:52:07.647Z,2.60
2022-10-07T22:54:12.045Z,2.30
2022-10-07T22:56:16.823Z,2.55
2022-10-07T22:58:18.412Z,2.53
2022-10-07T23:00:21.318Z,2.55
2022-10-07T23:02:23.236Z,2.78
2022-10-07T23:04:24.887Z,2.67
2022-10-07T23:06:26.558Z,2.30
2022-10-07T23:08:28.696Z,2.67
2022-10-07T23:10:30.328Z,2.70
2022-10-07T23:12:32.393Z,2.60
2022-10-07T23:14:34.060Z,2.38
2022-10-07T23:16:35.968Z,2.40
2022-10-07T23:18:45.012Z,2.70
2022-10-07T23:20:46.621Z,2.58
2022-10-07T23:22:48.872Z,2.28
2022-10-07T23:24:52.347Z,2.40
2022-10-07T23:26:54.088Z,2.58
2022-10-07T23:28:58.147Z,2.60
2022-10-07T23:31:07.849Z,2.40
2022-10-07T23:33:09.509Z,2.60
2022-10-07T23:35:11.631Z,2.25
2022-10-07T23:37:13.221Z,2.60
2022-10-07T23:39:14.911Z,2.35
2022-10-07T23:41:20.008Z,2.45
2022-10-07T23:43:22.668Z,2.70
2022-10-07T23:45:24.269Z,2.58
2022-10-07T23:47:25.902Z,2.53
2022-10-07T23:49:27.488Z,2.75
2022-10-07T23:51:32.103Z,2.60
2022-10-07T23:53:35.144Z,2.45
2022-10-07T23:55:36.734Z,2.47
2022-10-07T23:57:39.263Z,2.22
2022-10-07T23:59:40.845Z,2.03
